PWSweather.com
Personal Weather Stations
Station Observations
IONTARIO88
Lincoln, ON L0R

Lincoln, ON L0R

Lat: 43.1763563, Lon: -79.4719525

Elevation: 297

Station Type: Davis Vantage Pro 2 Plus

http://www.beamsvillewx.ca

High Low Average
Temperature 32.2°F0.1°C 23.2°F-4.9°C 28.3°F-2.1°C
Dew Point 26.4°F-3.1°C 16.3°F-8.7°C 20.2°F-6.6°C
Winds 7.0 mph 11.3 kmh Calm Calm 4.0 mph SSW6.4 kmh SSW
Wind Gusts 17.0 mph27.4 kmh 2.0 mph3.2 kmh 9.0 mph14.5 kmh
Humidity 83% 61% 72%
Pressure 30.30 in1026.1 mb 29.96 in1014.6 mb -
Precipitation 0.00 in0.0 mm - -
Hour Temp Dew Point Humidity Winds Wind Gusts Pressure Precip Precip Rate Daily Precip Total
12:00 AM 23.7°F-4.6°C 16.6°F-8.6°C 74% 3.0 mph WSW4.8 kmh WSW 7.0 mph11.3 kmh 30.28 in1025.4 mb 0.00 in0.0 mm 0.00 in0.0 mm 0.00 in0.0 mm
12:15 AM 23.7°F-4.6°C 16.6°F-8.6°C 74% 3.0 mph WSW4.8 kmh WSW 7.0 mph11.3 kmh 30.28 in1025.4 mb 0.00 in0.0 mm 0.00 in0.0 mm 0.00 in0.0 mm
12:30 AM 23.7°F-4.6°C 17.0°F-8.3°C 75% 1.0 mph WSW1.6 kmh WSW 6.0 mph9.7 kmh 30.28 in1025.4 mb 0.00 in0.0 mm 0.00 in0.0 mm 0.00 in0.0 mm
12:45 AM 23.7°F-4.6°C 16.3°F-8.7°C 73% 2.0 mph WSW3.2 kmh WSW 5.0 mph8.0 kmh 30.28 in1025.4 mb 0.00 in0.0 mm 0.00 in0.0 mm 0.00 in0.0 mm
01:00 AM 23.7°F-4.6°C 16.3°F-8.7°C 73% 3.0 mph WSW4.8 kmh WSW 5.0 mph8.0 kmh 30.28 in1025.4 mb 0.00 in0.0 mm 0.00 in0.0 mm 0.00 in0.0 mm
01:15 AM 23.7°F-4.6°C 16.6°F-8.6°C 74% 3.0 mph WSW4.8 kmh WSW 6.0 mph9.7 kmh 30.28 in1025.4 mb 0.00 in0.0 mm 0.00 in0.0 mm 0.00 in0.0 mm
01:30 AM 23.7°F-4.6°C 16.6°F-8.6°C 74% 3.0 mph WSW4.8 kmh WSW 6.0 mph9.7 kmh 30.28 in1025.4 mb 0.00 in0.0 mm 0.00 in0.0 mm 0.00 in0.0 mm
01:45 AM 23.5°F-4.7°C 16.5°F-8.6°C 74% 3.0 mph WSW4.8 kmh WSW 5.0 mph8.0 kmh 30.28 in1025.4 mb 0.00 in0.0 mm 0.00 in0.0 mm 0.00 in0.0 mm
02:00 AM 23.7°F-4.6°C 16.6°F-8.6°C 74% 4.0 mph SW6.4 kmh SW 8.0 mph12.9 kmh 30.28 in1025.4 mb 0.00 in0.0 mm 0.00 in0.0 mm 0.00 in0.0 mm
02:15 AM 23.5°F-4.7°C 16.8°F-8.4°C 75% 4.0 mph SW6.4 kmh SW 8.0 mph12.9 kmh 30.28 in1025.4 mb 0.00 in0.0 mm 0.00 in0.0 mm 0.00 in0.0 mm
02:30 AM 23.5°F-4.7°C 16.8°F-8.4°C 75% 3.0 mph SW4.8 kmh SW 7.0 mph11.3 kmh 30.28 in1025.4 mb 0.00 in0.0 mm 0.00 in0.0 mm 0.00 in0.0 mm
02:45 AM 23.4°F-4.8°C 16.6°F-8.6°C 75% 4.0 mph SW6.4 kmh SW 8.0 mph12.9 kmh 30.27 in1025.1 mb 0.00 in0.0 mm 0.00 in0.0 mm 0.00 in0.0 mm
03:00 AM 23.4°F-4.8°C 16.6°F-8.6°C 75% 4.0 mph SW6.4 kmh SW 7.0 mph11.3 kmh 30.28 in1025.4 mb 0.00 in0.0 mm 0.00 in0.0 mm 0.00 in0.0 mm
03:15 AM 23.4°F-4.8°C 16.6°F-8.6°C 75% 3.0 mph SW4.8 kmh SW 8.0 mph12.9 kmh 30.29 in1025.7 mb 0.00 in0.0 mm 0.00 in0.0 mm 0.00 in0.0 mm
03:30 AM 23.5°F-4.7°C 16.8°F-8.4°C 75% 5.0 mph SW8.0 kmh SW 10.0 mph16.1 kmh 30.29 in1025.7 mb 0.00 in0.0 mm 0.00 in0.0 mm 0.00 in0.0 mm
03:45 AM 23.7°F-4.6°C 17.3°F-8.2°C 76% 4.0 mph SW6.4 kmh SW 9.0 mph14.5 kmh 30.30 in1026.1 mb 0.00 in0.0 mm 0.00 in0.0 mm 0.00 in0.0 mm
04:00 AM 23.9°F-4.5°C 17.7°F-7.9°C 77% 4.0 mph SW6.4 kmh SW 9.0 mph14.5 kmh 30.30 in1026.1 mb 0.00 in0.0 mm 0.00 in0.0 mm 0.00 in0.0 mm
04:15 AM 23.7°F-4.6°C 17.9°F-7.8°C 78% 4.0 mph SW6.4 kmh SW 7.0 mph11.3 kmh 30.29 in1025.7 mb 0.00 in0.0 mm 0.00 in0.0 mm 0.00 in0.0 mm
04:30 AM 23.5°F-4.7°C 18.0°F-7.8°C 79% 4.0 mph SSW6.4 kmh SSW 9.0 mph14.5 kmh 30.28 in1025.4 mb 0.00 in0.0 mm 0.00 in0.0 mm 0.00 in0.0 mm
04:45 AM 23.7°F-4.6°C 18.5°F-7.5°C 80% 4.0 mph SSW6.4 kmh SSW 11.0 mph17.7 kmh 30.28 in1025.4 mb 0.00 in0.0 mm 0.00 in0.0 mm 0.00 in0.0 mm
05:00 AM 23.7°F-4.6°C 18.5°F-7.5°C 80% 4.0 mph SSW6.4 kmh SSW 11.0 mph17.7 kmh 30.28 in1025.4 mb 0.00 in0.0 mm 0.00 in0.0 mm 0.00 in0.0 mm
05:15 AM 23.5°F-4.7°C 18.3°F-7.6°C 80% 4.0 mph SW6.4 kmh SW 9.0 mph14.5 kmh 30.28 in1025.4 mb 0.00 in0.0 mm 0.00 in0.0 mm 0.00 in0.0 mm
05:30 AM 23.5°F-4.7°C 18.3°F-7.6°C 80% 4.0 mph SSW6.4 kmh SSW 10.0 mph16.1 kmh 30.27 in1025.1 mb 0.00 in0.0 mm 0.00 in0.0 mm 0.00 in0.0 mm
05:45 AM 23.4°F-4.8°C 18.1°F-7.7°C 80% 4.0 mph SW6.4 kmh SW 10.0 mph16.1 kmh 30.28 in1025.4 mb 0.00 in0.0 mm 0.00 in0.0 mm 0.00 in0.0 mm
06:00 AM 23.4°F-4.8°C 18.4°F-7.6°C 81% 4.0 mph SSW6.4 kmh SSW 8.0 mph12.9 kmh 30.28 in1025.4 mb 0.00 in0.0 mm 0.00 in0.0 mm 0.00 in0.0 mm
06:15 AM 23.2°F-4.9°C 18.2°F-7.7°C 81% 3.0 mph SSW4.8 kmh SSW 7.0 mph11.3 kmh 30.29 in1025.7 mb 0.00 in0.0 mm 0.00 in0.0 mm 0.00 in0.0 mm
06:30 AM 23.2°F-4.9°C 18.5°F-7.5°C 82% 4.0 mph SSW6.4 kmh SSW 7.0 mph11.3 kmh 30.29 in1025.7 mb 0.00 in0.0 mm 0.00 in0.0 mm 0.00 in0.0 mm
06:45 AM 23.2°F-4.9°C 18.2°F-7.7°C 81% 3.0 mph SSW4.8 kmh SSW 7.0 mph11.3 kmh 30.29 in1025.7 mb 0.00 in0.0 mm 0.00 in0.0 mm 0.00 in0.0 mm
07:00 AM 23.2°F-4.9°C 18.2°F-7.7°C 81% 2.0 mph SSW3.2 kmh SSW 7.0 mph11.3 kmh 30.30 in1026.1 mb 0.00 in0.0 mm 0.00 in0.0 mm 0.00 in0.0 mm
07:15 AM 23.2°F-4.9°C 17.9°F-7.8°C 80% 2.0 mph SSW3.2 kmh SSW 5.0 mph8.0 kmh 30.29 in1025.7 mb 0.00 in0.0 mm 0.00 in0.0 mm 0.00 in0.0 mm
07:30 AM 23.2°F-4.9°C 18.2°F-7.7°C 81% 3.0 mph SSW4.8 kmh SSW 5.0 mph8.0 kmh 30.28 in1025.4 mb 0.00 in0.0 mm 0.00 in0.0 mm 0.00 in0.0 mm
07:45 AM 23.2°F-4.9°C 18.2°F-7.7°C 81% 3.0 mph SSW4.8 kmh SSW 6.0 mph9.7 kmh 30.28 in1025.4 mb 0.00 in0.0 mm 0.00 in0.0 mm 0.00 in0.0 mm
08:00 AM 23.5°F-4.7°C 18.0°F-7.8°C 79% 3.0 mph SSW4.8 kmh SSW 7.0 mph11.3 kmh 30.28 in1025.4 mb 0.00 in0.0 mm 0.00 in0.0 mm 0.00 in0.0 mm
08:15 AM 23.5°F-4.7°C 18.0°F-7.8°C 79% 2.0 mph SSW3.2 kmh SSW 6.0 mph9.7 kmh 30.27 in1025.1 mb 0.00 in0.0 mm 0.00 in0.0 mm 0.00 in0.0 mm
08:30 AM 23.5°F-4.7°C 18.0°F-7.8°C 79% 2.0 mph SSW3.2 kmh SSW 5.0 mph8.0 kmh 30.27 in1025.1 mb 0.00 in0.0 mm 0.00 in0.0 mm 0.00 in0.0 mm
08:45 AM 23.7°F-4.6°C 18.2°F-7.7°C 79% 2.0 mph SSW3.2 kmh SSW 6.0 mph9.7 kmh 30.28 in1025.4 mb 0.00 in0.0 mm 0.00 in0.0 mm 0.00 in0.0 mm
09:00 AM 24.1°F-4.4°C 18.8°F-7.3°C 80% 2.0 mph SSW3.2 kmh SSW 7.0 mph11.3 kmh 30.28 in1025.4 mb 0.00 in0.0 mm 0.00 in0.0 mm 0.00 in0.0 mm
09:15 AM 25.0°F-3.9°C 19.4°F-7.0°C 79% 1.0 mph SSW1.6 kmh SSW 6.0 mph9.7 kmh 30.27 in1025.1 mb 0.00 in0.0 mm 0.00 in0.0 mm 0.00 in0.0 mm
09:30 AM 25.7°F-3.5°C 19.5°F-6.9°C 77% 2.0 mph SSW3.2 kmh SSW 6.0 mph9.7 kmh 30.27 in1025.1 mb 0.00 in0.0 mm 0.00 in0.0 mm 0.00 in0.0 mm
09:45 AM 26.8°F-2.9°C 20.2°F-6.6°C 76% 4.0 mph S6.4 kmh S 7.0 mph11.3 kmh 30.27 in1025.1 mb 0.00 in0.0 mm 0.00 in0.0 mm 0.00 in0.0 mm
10:00 AM 27.5°F-2.5°C 20.3°F-6.5°C 74% 4.0 mph SW6.4 kmh SW 8.0 mph12.9 kmh 30.26 in1024.7 mb 0.00 in0.0 mm 0.00 in0.0 mm 0.00 in0.0 mm
10:15 AM 28.0°F-2.2°C 20.5°F-6.4°C 73% 4.0 mph SSW6.4 kmh SSW 8.0 mph12.9 kmh 30.27 in1025.1 mb 0.00 in0.0 mm 0.00 in0.0 mm 0.00 in0.0 mm
10:30 AM 28.6°F-1.9°C 20.7°F-6.3°C 72% 5.0 mph SW8.0 kmh SW 11.0 mph17.7 kmh 30.27 in1025.1 mb 0.00 in0.0 mm 0.00 in0.0 mm 0.00 in0.0 mm
10:45 AM 28.9°F-1.7°C 21.0°F-6.1°C 72% 4.0 mph SSW6.4 kmh SSW 11.0 mph17.7 kmh 30.26 in1024.7 mb 0.00 in0.0 mm 0.00 in0.0 mm 0.00 in0.0 mm
11:00 AM 29.7°F-1.3°C 21.4°F-5.9°C 71% 5.0 mph SW8.0 kmh SW 13.0 mph20.9 kmh 30.25 in1024.4 mb 0.00 in0.0 mm 0.00 in0.0 mm 0.00 in0.0 mm
11:15 AM 30.4°F-0.9°C 20.7°F-6.3°C 67% 6.0 mph SSW9.7 kmh SSW 13.0 mph20.9 kmh 30.24 in1024.0 mb 0.00 in0.0 mm 0.00 in0.0 mm 0.00 in0.0 mm
11:30 AM 30.9°F-0.6°C 21.2°F-6.0°C 67% 4.0 mph SW6.4 kmh SW 9.0 mph14.5 kmh 30.24 in1024.0 mb 0.00 in0.0 mm 0.00 in0.0 mm 0.00 in0.0 mm
11:45 AM 30.7°F-0.7°C 20.7°F-6.3°C 66% 5.0 mph SSW8.0 kmh SSW 11.0 mph17.7 kmh 30.22 in1023.4 mb 0.00 in0.0 mm 0.00 in0.0 mm 0.00 in0.0 mm
12:00 PM 30.7°F-0.7°C 20.7°F-6.3°C 66% 5.0 mph S8.0 kmh S 12.0 mph19.3 kmh 30.21 in1023.0 mb 0.00 in0.0 mm 0.00 in0.0 mm 0.00 in0.0 mm
12:15 PM 31.3°F-0.4°C 20.9°F-6.2°C 65% 6.0 mph S9.7 kmh S 13.0 mph20.9 kmh 30.20 in1022.7 mb 0.00 in0.0 mm 0.00 in0.0 mm 0.00 in0.0 mm
12:30 PM 31.6°F-0.2°C 20.8°F-6.2°C 64% 6.0 mph S9.7 kmh S 13.0 mph20.9 kmh 30.19 in1022.4 mb 0.00 in0.0 mm 0.00 in0.0 mm 0.00 in0.0 mm
12:45 PM 31.6°F-0.2°C 20.1°F-6.6°C 62% 7.0 mph SSW11.3 kmh SSW 13.0 mph20.9 kmh 30.19 in1022.4 mb 0.00 in0.0 mm 0.00 in0.0 mm 0.00 in0.0 mm
01:00 PM 31.1°F-0.5°C 20.3°F-6.5°C 64% 6.0 mph S9.7 kmh S 11.0 mph17.7 kmh 30.19 in1022.4 mb 0.00 in0.0 mm 0.00 in0.0 mm 0.00 in0.0 mm
01:15 PM 31.5°F-0.3°C 19.9°F-6.7°C 62% 7.0 mph SSW11.3 kmh SSW 17.0 mph27.4 kmh 30.17 in1021.7 mb 0.00 in0.0 mm 0.00 in0.0 mm 0.00 in0.0 mm
01:30 PM 31.6°F-0.2°C 20.1°F-6.6°C 62% 5.0 mph SSW8.0 kmh SSW 14.0 mph22.5 kmh 30.16 in1021.3 mb 0.00 in0.0 mm 0.00 in0.0 mm 0.00 in0.0 mm
01:45 PM 31.6°F-0.2°C 20.1°F-6.6°C 62% 6.0 mph SSW9.7 kmh SSW 17.0 mph27.4 kmh 30.14 in1020.7 mb 0.00 in0.0 mm 0.00 in0.0 mm 0.00 in0.0 mm
02:00 PM 31.6°F-0.2°C 20.5°F-6.4°C 63% 6.0 mph SSW9.7 kmh SSW 13.0 mph20.9 kmh 30.13 in1020.3 mb 0.00 in0.0 mm 0.00 in0.0 mm 0.00 in0.0 mm
02:15 PM 31.8°F-0.1°C 20.6°F-6.3°C 63% 6.0 mph SSW9.7 kmh SSW 13.0 mph20.9 kmh 30.11 in1019.6 mb 0.00 in0.0 mm 0.00 in0.0 mm 0.00 in0.0 mm
02:30 PM 32.2°F0.1°C 21.4°F-5.9°C 64% 5.0 mph SSW8.0 kmh SSW 12.0 mph19.3 kmh 30.10 in1019.3 mb 0.00 in0.0 mm 0.00 in0.0 mm 0.00 in0.0 mm
02:45 PM 31.5°F-0.3°C 20.3°F-6.5°C 63% 7.0 mph S11.3 kmh S 15.0 mph24.1 kmh 30.09 in1019.0 mb 0.00 in0.0 mm 0.00 in0.0 mm 0.00 in0.0 mm
03:00 PM 31.5°F-0.3°C 20.3°F-6.5°C 63% 6.0 mph SSW9.7 kmh SSW 13.0 mph20.9 kmh 30.08 in1018.6 mb 0.00 in0.0 mm 0.00 in0.0 mm 0.00 in0.0 mm
03:15 PM 31.5°F-0.3°C 19.9°F-6.7°C 62% 6.0 mph S9.7 kmh S 13.0 mph20.9 kmh 30.08 in1018.6 mb 0.00 in0.0 mm 0.00 in0.0 mm 0.00 in0.0 mm
03:30 PM 31.6°F-0.2°C 20.5°F-6.4°C 63% 5.0 mph S8.0 kmh S 12.0 mph19.3 kmh 30.08 in1018.6 mb 0.00 in0.0 mm 0.00 in0.0 mm 0.00 in0.0 mm
03:45 PM 31.5°F-0.3°C 20.3°F-6.5°C 63% 6.0 mph SSW9.7 kmh SSW 14.0 mph22.5 kmh 30.07 in1018.3 mb 0.00 in0.0 mm 0.00 in0.0 mm 0.00 in0.0 mm
04:00 PM 31.5°F-0.3°C 20.3°F-6.5°C 63% 4.0 mph SSW6.4 kmh SSW 11.0 mph17.7 kmh 30.07 in1018.3 mb 0.00 in0.0 mm 0.00 in0.0 mm 0.00 in0.0 mm
04:15 PM 31.5°F-0.3°C 20.7°F-6.3°C 64% 4.0 mph SSW6.4 kmh SSW 10.0 mph16.1 kmh 30.07 in1018.3 mb 0.00 in0.0 mm 0.00 in0.0 mm 0.00 in0.0 mm
04:30 PM 31.5°F-0.3°C 20.7°F-6.3°C 64% 3.0 mph SSW4.8 kmh SSW 10.0 mph16.1 kmh 30.07 in1018.3 mb 0.00 in0.0 mm 0.00 in0.0 mm 0.00 in0.0 mm
04:45 PM 31.5°F-0.3°C 19.9°F-6.7°C 62% 6.0 mph SSW9.7 kmh SSW 11.0 mph17.7 kmh 30.06 in1017.9 mb 0.00 in0.0 mm 0.00 in0.0 mm 0.00 in0.0 mm
05:00 PM 31.5°F-0.3°C 19.9°F-6.7°C 62% 4.0 mph S6.4 kmh S 10.0 mph16.1 kmh 30.05 in1017.6 mb 0.00 in0.0 mm 0.00 in0.0 mm 0.00 in0.0 mm
05:15 PM 31.3°F-0.4°C 20.1°F-6.6°C 63% 4.0 mph S6.4 kmh S 10.0 mph16.1 kmh 30.05 in1017.6 mb 0.00 in0.0 mm 0.00 in0.0 mm 0.00 in0.0 mm
05:30 PM 31.3°F-0.4°C 19.8°F-6.8°C 62% 6.0 mph S9.7 kmh S 10.0 mph16.1 kmh 30.05 in1017.6 mb 0.00 in0.0 mm 0.00 in0.0 mm 0.00 in0.0 mm
05:45 PM 30.9°F-0.6°C 19.0°F-7.2°C 61% 4.0 mph S6.4 kmh S 11.0 mph17.7 kmh 30.04 in1017.3 mb 0.00 in0.0 mm 0.00 in0.0 mm 0.00 in0.0 mm
06:00 PM 30.9°F-0.6°C 19.0°F-7.2°C 61% 5.0 mph S8.0 kmh S 10.0 mph16.1 kmh 30.02 in1016.6 mb 0.00 in0.0 mm 0.00 in0.0 mm 0.00 in0.0 mm
06:15 PM 30.9°F-0.6°C 19.4°F-7.0°C 62% 3.0 mph S4.8 kmh S 8.0 mph12.9 kmh 30.01 in1016.3 mb 0.00 in0.0 mm 0.00 in0.0 mm 0.00 in0.0 mm
06:30 PM 30.9°F-0.6°C 19.4°F-7.0°C 62% 3.0 mph S4.8 kmh S 10.0 mph16.1 kmh 30.03 in1016.9 mb 0.00 in0.0 mm 0.00 in0.0 mm 0.00 in0.0 mm
06:45 PM 31.1°F-0.5°C 19.6°F-6.9°C 62% 2.0 mph SW3.2 kmh SW 7.0 mph11.3 kmh 30.02 in1016.6 mb 0.00 in0.0 mm 0.00 in0.0 mm 0.00 in0.0 mm
07:00 PM 31.1°F-0.5°C 20.0°F-6.7°C 63% 1.0 mph S1.6 kmh S 4.0 mph6.4 kmh 30.02 in1016.6 mb 0.00 in0.0 mm 0.00 in0.0 mm 0.00 in0.0 mm
07:15 PM 31.3°F-0.4°C 20.5°F-6.4°C 64% 1.0 mph S1.6 kmh S 5.0 mph8.0 kmh 30.03 in1016.9 mb 0.00 in0.0 mm 0.00 in0.0 mm 0.00 in0.0 mm
07:30 PM 31.3°F-0.4°C 20.9°F-6.2°C 65% 1.0 mph S1.6 kmh S 4.0 mph6.4 kmh 30.02 in1016.6 mb 0.00 in0.0 mm 0.00 in0.0 mm 0.00 in0.0 mm
07:45 PM 31.3°F-0.4°C 21.2°F-6.0°C 66% Calm Calm 2.0 mph3.2 kmh 30.03 in1016.9 mb 0.00 in0.0 mm 0.00 in0.0 mm 0.00 in0.0 mm
08:00 PM 31.3°F-0.4°C 21.6°F-5.8°C 67% 1.0 mph S1.6 kmh S 4.0 mph6.4 kmh 30.04 in1017.3 mb 0.00 in0.0 mm 0.00 in0.0 mm 0.00 in0.0 mm
08:15 PM 31.3°F-0.4°C 22.3°F-5.4°C 69% 2.0 mph S3.2 kmh S 5.0 mph8.0 kmh 30.03 in1016.9 mb 0.00 in0.0 mm 0.00 in0.0 mm 0.00 in0.0 mm
08:30 PM 31.3°F-0.4°C 22.6°F-5.2°C 70% 1.0 mph WSW1.6 kmh WSW 5.0 mph8.0 kmh 30.03 in1016.9 mb 0.00 in0.0 mm 0.00 in0.0 mm 0.00 in0.0 mm
08:45 PM 31.3°F-0.4°C 23.0°F-5.0°C 71% 2.0 mph WSW3.2 kmh WSW 5.0 mph8.0 kmh 30.01 in1016.3 mb 0.00 in0.0 mm 0.00 in0.0 mm 0.00 in0.0 mm
09:00 PM 31.3°F-0.4°C 23.0°F-5.0°C 71% 1.0 mph WSW1.6 kmh WSW 6.0 mph9.7 kmh 30.00 in1015.9 mb 0.00 in0.0 mm 0.00 in0.0 mm 0.00 in0.0 mm
09:15 PM 31.5°F-0.3°C 23.1°F-4.9°C 71% 1.0 mph WSW1.6 kmh WSW 6.0 mph9.7 kmh 29.99 in1015.6 mb 0.00 in0.0 mm 0.00 in0.0 mm 0.00 in0.0 mm
09:30 PM 31.5°F-0.3°C 23.5°F-4.7°C 72% 2.0 mph SW3.2 kmh SW 7.0 mph11.3 kmh 29.99 in1015.6 mb 0.00 in0.0 mm 0.00 in0.0 mm 0.00 in0.0 mm
09:45 PM 31.3°F-0.4°C 23.3°F-4.8°C 72% 2.0 mph SW3.2 kmh SW 6.0 mph9.7 kmh 29.98 in1015.2 mb 0.00 in0.0 mm 0.00 in0.0 mm 0.00 in0.0 mm
10:00 PM 30.9°F-0.6°C 23.3°F-4.8°C 73% 4.0 mph S6.4 kmh S 11.0 mph17.7 kmh 29.96 in1014.6 mb 0.00 in0.0 mm 0.00 in0.0 mm 0.00 in0.0 mm
10:15 PM 31.1°F-0.5°C 23.5°F-4.7°C 73% 1.0 mph S1.6 kmh S 5.0 mph8.0 kmh 29.98 in1015.2 mb 0.00 in0.0 mm 0.00 in0.0 mm 0.00 in0.0 mm
10:30 PM 31.3°F-0.4°C 23.3°F-4.8°C 72% 1.0 mph S1.6 kmh S 6.0 mph9.7 kmh 29.99 in1015.6 mb 0.00 in0.0 mm 0.00 in0.0 mm 0.00 in0.0 mm
10:45 PM 31.5°F-0.3°C 23.8°F-4.6°C 73% 1.0 mph SSW1.6 kmh SSW 6.0 mph9.7 kmh 29.99 in1015.6 mb 0.00 in0.0 mm 0.00 in0.0 mm 0.00 in0.0 mm
11:00 PM 31.5°F-0.3°C 24.1°F-4.4°C 74% 2.0 mph SW3.2 kmh SW 7.0 mph11.3 kmh 29.99 in1015.6 mb 0.00 in0.0 mm 0.00 in0.0 mm 0.00 in0.0 mm
11:15 PM 31.5°F-0.3°C 24.8°F-4.0°C 76% 4.0 mph SW6.4 kmh SW 10.0 mph16.1 kmh 29.97 in1014.9 mb 0.00 in0.0 mm 0.00 in0.0 mm 0.00 in0.0 mm
11:30 PM 31.3°F-0.4°C 25.2°F-3.8°C 78% 4.0 mph SW6.4 kmh SW 9.0 mph14.5 kmh 29.97 in1014.9 mb 0.00 in0.0 mm 0.00 in0.0 mm 0.00 in0.0 mm
11:45 PM 31.5°F-0.3°C 25.7°F-3.5°C 79% 6.0 mph SW9.7 kmh SW 12.0 mph19.3 kmh 29.97 in1014.9 mb 0.00 in0.0 mm 0.00 in0.0 mm 0.00 in0.0 mm